NFSM7: N Fork Spring River nr Purcell, MO

                                SHEF ID:       NFSM7     N Fork Spring River nr Purcell, MO
STATION TYPE:

STAGE RIV-FLOW
ft cfs
Ccp-Rev Ccp-Rev
(America/Chicago)
10/19 00:00 3.28 84
10/19 01:00 3.42 104
10/19 02:00 3.54 123
10/19 03:00 3.64 139
10/19 04:00 3.72 154
10/19 05:00 3.75 159
10/19 06:00 3.77 163
10/19 07:00 3.76 161
10/19 08:00 3.75 159
10/19 09:00 3.74 157
10/19 10:00 3.74 157
10/19 11:00 3.75 159
10/19 12:00 3.78 165
10/19 13:00 3.81 170
10/19 14:00 3.85 178
10/19 15:00 3.89 186
10/19 16:00 3.91 190
10/19 17:00 3.92 192
10/19 18:00 3.92 192
10/19 19:00 3.92 192
10/19 20:00 3.90 188
10/19 21:00 3.88 184
10/19 22:00 3.84 176
10/19 23:00 3.81 170
Data processed at Mon 20Oct2025 04:45 GMT

NOTICE: If you are parsing this page

Please convert to using our Data API. Starting January 1st, 2026 we will be migrating to: https://water.usace.army.mil with modern pages rendered in JavaScript. You will no longer be able to scrape this page! CWMSDataAPI (CDA)

Timeseries IDs (TSIDs)

TSIDs used from left to right in the data table
PURS.Stage.Inst.1Hour.0.Ccp-Rev
PURS.Flow.Inst.1Hour.0.Ccp-Rev

                            

All information presented herein is the property of the government of the United States of America and may be revised or deleted at any time without prior notice. Dissemination of this information without the expressed written consent of the Public Affairs Office, Tulsa District U.S. Army Corps of Engineers is strictly prohibited. These data are gathered electronically and, as presented, have NOT undergone any form of quality control. These data are NOT guaranteed to be valid or correct.